Time;durP1;ratioP1;P1;durP2;ratioP2;P2;SDS_P1;SDS_P2;PMS_P1;PMS_P2;Temp;Humidity;BMP_temperature;BMP_pressure;BME280_temperature;BME280_humidity;BME280_pressure;Samples;Min_cycle;Max_cycle;Signal;HPM_P1;HPM_P2
2022/12/31 00:02:07;;;;;;;47.40;21.17;;;;;;;-142.25;100.00;58004.16;5034782;28;20048;-68
2022/12/31 00:04:33;;;;;;;46.67;22.60;;;;;;;-142.25;100.00;58004.16;5035916;28;20148;-69
2022/12/31 00:06:59;;;;;;;45.90;22.77;;;;;;;-142.25;100.00;58004.16;5035338;28;20668;-69
2022/12/31 00:09:25;;;;;;;44.07;24.00;;;;;;;-142.25;100.00;58004.16;5033068;28;20045;-68
2022/12/31 00:11:50;;;;;;;46.57;23.00;;;;;;;-142.25;100.00;58004.16;5032112;28;20039;-70
2022/12/31 00:14:16;;;;;;;48.53;23.57;;;;;;;-142.25;100.00;58004.16;5031612;28;20060;-68
2022/12/31 00:16:41;;;;;;;42.50;21.40;;;;;;;-142.25;100.00;58004.16;5033297;28;20045;-68
2022/12/31 00:19:10;;;;;;;38.47;20.13;;;;;;;-142.25;100.00;58004.16;5033755;28;20468;-67
2022/12/31 00:21:36;;;;;;;45.17;22.97;;;;;;;-142.25;100.00;58004.16;5034321;28;20025;-68
2022/12/31 00:24:03;;;;;;;39.07;20.67;;;;;;;-142.25;100.00;58004.16;5033788;28;20163;-67
2022/12/31 00:26:30;;;;;;;39.87;20.63;;;;;;;-142.25;100.00;58004.16;5036325;28;20071;-68
2022/12/31 00:28:58;;;;;;;38.97;20.20;;;;;;;-142.25;100.00;58004.16;5036605;28;20045;-68
2022/12/31 00:31:26;;;;;;;34.20;18.77;;;;;;;-142.25;100.00;58004.16;5033704;28;20030;-68
2022/12/31 00:33:53;;;;;;;42.13;20.83;;;;;;;-142.25;100.00;58004.16;5033113;28;20359;-68
2022/12/31 00:36:24;;;;;;;48.40;22.87;;;;;;;-142.25;100.00;58004.16;5033346;28;20048;-69
2022/12/31 00:38:52;;;;;;;43.67;23.10;;;;;;;-142.25;100.00;58004.16;5027648;28;20037;-69
2022/12/31 00:41:19;;;;;;;51.53;23.77;;;;;;;-142.25;100.00;58004.16;5031716;28;20049;-67
2022/12/31 00:43:46;;;;;;;46.37;23.63;;;;;;;-142.25;100.00;58004.16;5034571;28;20045;-69
2022/12/31 00:46:12;;;;;;;37.17;19.57;;;;;;;-142.25;100.00;58004.16;5032717;28;20281;-69
2022/12/31 00:48:38;;;;;;;40.33;20.87;;;;;;;-142.25;100.00;58004.16;5034535;28;20059;-67
2022/12/31 00:51:06;;;;;;;38.30;20.87;;;;;;;-142.25;100.00;58004.16;5034711;28;20045;-67
2022/12/31 00:53:32;;;;;;;40.23;21.57;;;;;;;-142.25;100.00;58004.16;5034181;28;20587;-67
2022/12/31 00:56:04;;;;;;;43.80;23.00;;;;;;;-142.25;100.00;58004.16;5017712;28;20614;-68
2022/12/31 00:58:30;;;;;;;38.37;23.23;;;;;;;-142.25;100.00;58004.16;5035574;28;20041;-68
2022/12/31 01:00:56;;;;;;;38.47;22.13;;;;;;;-142.25;100.00;58004.16;5035395;28;20087;-67
2022/12/31 01:03:22;;;;;;;36.97;21.73;;;;;;;-142.25;100.00;58004.16;5034220;28;20033;-68
2022/12/31 01:05:49;;;;;;;36.77;19.43;;;;;;;-142.25;100.00;58004.16;5034240;28;20053;-68
2022/12/31 01:08:16;;;;;;;40.10;21.57;;;;;;;-142.25;100.00;58004.16;5033324;28;20266;-66
2022/12/31 01:13:30;;;;;;;38.17;20.03;;;;;;;-142.25;100.00;58004.16;5033847;28;20080;-67
2022/12/31 01:15:56;;;;;;;35.67;21.30;;;;;;;-142.25;100.00;58004.16;5035086;28;20461;-67
2022/12/31 01:18:22;;;;;;;38.73;20.20;;;;;;;-142.25;100.00;58004.16;5035123;28;20493;-68
2022/12/31 01:20:47;;;;;;;34.93;19.80;;;;;;;-142.25;100.00;58004.16;5024863;28;20037;-68
2022/12/31 01:23:13;;;;;;;38.87;20.53;;;;;;;-142.25;100.00;58004.16;5013840;28;20079;-67
2022/12/31 01:25:40;;;;;;;34.67;19.33;;;;;;;-142.25;100.00;58004.16;5034265;28;20057;-68
2022/12/31 01:28:07;;;;;;;35.87;20.67;;;;;;;-142.25;100.00;58004.16;5034864;28;20056;-69
2022/12/31 01:30:36;;;;;;;34.73;20.80;;;;;;;-142.25;100.00;58004.16;5039443;28;20098;-68
2022/12/31 01:33:05;;;;;;;33.63;19.77;;;;;;;-142.25;100.00;58004.16;5039171;28;20043;-68
2022/12/31 01:35:33;;;;;;;35.13;19.27;;;;;;;-142.25;100.00;58004.16;5037685;28;20044;-67
2022/12/31 01:37:59;;;;;;;36.37;20.00;;;;;;;-142.25;100.00;58004.16;5037191;28;20475;-68
2022/12/31 01:40:24;;;;;;;36.03;21.10;;;;;;;-142.25;100.00;58004.16;5038233;28;20033;-68
2022/12/31 01:42:57;;;;;;;33.60;20.40;;;;;;;-142.25;100.00;58004.16;5041893;28;20041;-68
2022/12/31 01:45:22;;;;;;;33.13;18.20;;;;;;;-142.25;100.00;58004.16;5041124;28;20087;-68
2022/12/31 01:47:52;;;;;;;35.47;19.67;;;;;;;-142.25;100.00;58004.16;5038036;28;20668;-68
2022/12/31 01:50:27;;;;;;;35.77;21.30;;;;;;;-142.25;100.00;58004.16;5039442;28;20821;-67
2022/12/31 01:52:59;;;;;;;48.67;23.65;;;;;;;-142.25;100.00;58004.16;5037809;28;20029;-67
2022/12/31 01:55:31;;;;;;;65.77;30.37;;;;;;;-142.25;100.00;58004.16;5037720;28;20403;-67
2022/12/31 01:58:10;;;;;;;60.40;31.63;;;;;;;-142.25;100.00;58004.16;5038147;28;20087;-66
2022/12/31 02:00:36;;;;;;;37.60;21.17;;;;;;;-142.25;100.00;58004.16;5019916;28;20048;-66
2022/12/31 02:03:06;;;;;;;36.07;20.60;;;;;;;-142.25;100.00;58004.16;5036803;28;20025;-67
2022/12/31 02:05:37;;;;;;;36.63;20.90;;;;;;;-142.25;100.00;58004.16;5035305;28;20866;-67
2022/12/31 02:08:04;;;;;;;33.73;18.70;;;;;;;-142.25;100.00;58004.16;5037743;28;20128;-68
2022/12/31 02:10:30;;;;;;;36.93;19.17;;;;;;;-142.25;100.00;58004.16;5036366;28;20049;-68
2022/12/31 02:12:56;;;;;;;30.37;18.50;;;;;;;-142.25;100.00;58004.16;5036425;28;20402;-68
2022/12/31 02:15:38;;;;;;;31.97;18.67;;;;;;;-142.25;100.00;58004.16;5035614;28;20053;-68
2022/12/31 02:18:16;;;;;;;36.73;19.67;;;;;;;-142.25;100.00;58004.16;5037198;28;20032;-68
2022/12/31 02:20:57;;;;;;;32.80;19.13;;;;;;;-142.25;100.00;58004.16;5035968;28;20042;-68
2022/12/31 02:24:01;;;;;;;35.13;19.60;;;;;;;-142.25;100.00;58004.16;5035648;28;20037;-68
2022/12/31 02:26:27;;;;;;;34.27;18.63;;;;;;;-142.25;100.00;58004.16;4958248;28;20474;-68
2022/12/31 02:29:26;;;;;;;33.47;19.20;;;;;;;-142.25;100.00;58004.16;4957331;28;20197;-68
2022/12/31 02:31:59;;;;;;;33.97;19.17;;;;;;;-142.25;100.00;58004.16;4942030;28;20047;-69
2022/12/31 02:34:35;;;;;;;31.50;19.47;;;;;;;-142.25;100.00;58004.16;4955178;28;20315;-68
2022/12/31 02:37:03;;;;;;;31.20;18.20;;;;;;;-142.25;100.00;58004.16;4954073;28;20236;-69
2022/12/31 02:39:30;;;;;;;33.80;19.00;;;;;;;-142.25;100.00;58004.16;4957580;28;20066;-69
2022/12/31 02:41:55;;;;;;;31.87;18.67;;;;;;;-142.25;100.00;58004.16;4957884;28;20050;-69
2022/12/31 02:44:31;;;;;;;33.97;19.67;;;;;;;-142.25;100.00;58004.16;4940411;28;20045;-68
2022/12/31 02:47:14;;;;;;;31.73;18.17;;;;;;;-142.25;100.00;58004.16;4958477;28;20439;-68
2022/12/31 02:49:40;;;;;;;29.70;18.57;;;;;;;-142.25;100.00;58004.16;4940132;28;20078;-68
2022/12/31 02:52:13;;;;;;;31.57;18.20;;;;;;;-142.25;100.00;58004.16;4956358;28;20402;-67
2022/12/31 02:55:00;;;;;;;26.63;16.63;;;;;;;-142.25;100.00;58004.16;4955918;28;20134;-67
2022/12/31 02:57:34;;;;;;;33.67;19.07;;;;;;;-142.25;100.00;58004.16;4955308;28;20043;-67
2022/12/31 03:02:54;;;;;;;34.37;18.63;;;;;;;-142.25;100.00;58004.16;5034437;28;20154;-68
2022/12/31 03:05:28;;;;;;;36.13;19.57;;;;;;;-142.25;100.00;58004.16;5035781;28;20037;-68
2022/12/31 03:07:54;;;;;;;31.20;18.10;;;;;;;-142.25;100.00;58004.16;5035854;28;20049;-68
2022/12/31 03:10:20;;;;;;;32.23;18.53;;;;;;;-142.25;100.00;58004.16;5035283;28;20519;-66
2022/12/31 03:12:47;;;;;;;30.97;19.03;;;;;;;-142.25;100.00;58004.16;5036314;28;20077;-67
2022/12/31 03:15:25;;;;;;;31.10;19.00;;;;;;;-142.25;100.00;58004.16;5035358;28;20259;-67
2022/12/31 03:18:03;;;;;;;32.63;20.03;;;;;;;-142.25;100.00;58004.16;5035980;28;20045;-67
2022/12/31 03:23:21;;;;;;;31.13;18.87;;;;;;;-142.25;100.00;58004.16;5036299;28;20519;-67
2022/12/31 03:25:47;;;;;;;34.60;21.73;;;;;;;-142.25;100.00;58004.16;5036352;28;20037;-67
2022/12/31 03:28:19;;;;;;;38.83;22.30;;;;;;;-142.25;100.00;58004.16;5036140;28;20053;-67
2022/12/31 03:30:49;;;;;;;36.60;20.67;;;;;;;-142.25;100.00;58004.16;5037499;28;20154;-68
2022/12/31 03:33:15;;;;;;;37.53;21.17;;;;;;;-142.25;100.00;58004.16;5034608;28;20633;-67
2022/12/31 03:35:42;;;;;;;32.77;20.70;;;;;;;-142.25;100.00;58004.16;5033585;28;20040;-68
2022/12/31 03:38:08;;;;;;;36.87;20.50;;;;;;;-142.25;100.00;58004.16;5034678;28;20041;-69
2022/12/31 03:40:44;;;;;;;34.63;20.73;;;;;;;-142.25;100.00;58004.16;5039518;28;20596;-68
2022/12/31 03:43:10;;;;;;;37.80;20.93;;;;;;;-142.25;100.00;58004.16;5031673;28;20044;-67
2022/12/31 03:45:36;;;;;;;39.90;20.93;;;;;;;-142.25;100.00;58004.16;5034368;28;20073;-68
2022/12/31 03:48:03;;;;;;;35.90;20.13;;;;;;;-142.25;100.00;58004.16;5034638;28;20044;-67
2022/12/31 03:50:31;;;;;;;34.70;20.67;;;;;;;-142.25;100.00;58004.16;5036340;28;20537;-68
2022/12/31 03:52:57;;;;;;;37.67;21.53;;;;;;;-142.25;100.00;58004.16;5036018;28;20128;-68
2022/12/31 03:55:23;;;;;;;35.33;19.23;;;;;;;-142.25;100.00;58004.16;5036468;28;20364;-68
2022/12/31 03:57:49;;;;;;;33.73;20.30;;;;;;;-142.25;100.00;58004.16;5036123;28;20028;-68
2022/12/31 04:00:17;;;;;;;33.03;19.77;;;;;;;-142.25;100.00;58004.16;5018720;28;20057;-67
2022/12/31 04:02:44;;;;;;;32.03;18.73;;;;;;;-142.25;100.00;58004.16;5036074;28;20041;-67
2022/12/31 04:05:11;;;;;;;33.77;19.80;;;;;;;-142.25;100.00;58004.16;5035041;28;20048;-68
2022/12/31 04:07:37;;;;;;;30.40;19.33;;;;;;;-142.25;100.00;58004.16;5035724;28;20709;-67
2022/12/31 04:10:05;;;;;;;33.13;18.43;;;;;;;-142.25;100.00;58004.16;5034410;28;21039;-67
2022/12/31 04:12:31;;;;;;;32.63;18.33;;;;;;;-142.25;100.00;58004.16;5035081;28;20048;-67
2022/12/31 04:14:57;;;;;;;33.90;19.00;;;;;;;-142.25;100.00;58004.16;5035479;28;20076;-67
2022/12/31 04:17:23;;;;;;;33.07;19.83;;;;;;;-142.25;100.00;58004.16;5033799;28;20048;-68
2022/12/31 04:19:49;;;;;;;27.90;17.97;;;;;;;-142.25;100.00;58004.16;5035587;28;20077;-68
2022/12/31 04:22:15;;;;;;;29.60;17.67;;;;;;;-142.25;100.00;58004.16;5034754;28;20141;-67
2022/12/31 04:24:42;;;;;;;29.70;19.00;;;;;;;-142.25;100.00;58004.16;5036488;28;20051;-67
2022/12/31 04:27:08;;;;;;;32.20;19.23;;;;;;;-142.25;100.00;58004.16;5032684;28;20408;-67
2022/12/31 04:29:34;;;;;;;33.23;19.30;;;;;;;-142.25;100.00;58004.16;5038432;28;20048;-68
2022/12/31 04:32:00;;;;;;;28.60;17.70;;;;;;;-142.25;100.00;58004.16;5035946;28;20041;-68
2022/12/31 04:34:26;;;;;;;33.67;20.93;;;;;;;-142.25;100.00;58004.16;5030273;28;20045;-70
2022/12/31 04:36:51;;;;;;;30.87;19.67;;;;;;;-142.25;100.00;58004.16;5030010;28;20060;-67
2022/12/31 04:39:17;;;;;;;30.63;19.73;;;;;;;-142.25;100.00;58004.16;5018775;28;20052;-67
2022/12/31 04:41:43;;;;;;;30.60;19.07;;;;;;;-142.25;100.00;58004.16;5036692;28;20480;-67
2022/12/31 04:44:08;;;;;;;29.43;17.60;;;;;;;-142.25;100.00;58004.16;5037983;28;20032;-68
2022/12/31 04:46:34;;;;;;;30.17;17.30;;;;;;;-142.25;100.00;58004.16;5020790;28;20132;-68
2022/12/31 04:49:01;;;;;;;28.27;18.00;;;;;;;-142.25;100.00;58004.16;5034993;28;20092;-67
2022/12/31 04:51:28;;;;;;;32.30;18.60;;;;;;;-142.25;100.00;58004.16;5035718;28;20037;-67
2022/12/31 04:53:53;;;;;;;31.70;17.97;;;;;;;-142.25;100.00;58004.16;5017933;28;20076;-68
2022/12/31 04:56:20;;;;;;;27.77;17.63;;;;;;;-142.25;100.00;58004.16;5037034;28;20618;-68
2022/12/31 04:58:46;;;;;;;30.03;16.13;;;;;;;-142.25;100.00;58004.16;5035840;28;20073;-68
2022/12/31 05:01:12;;;;;;;29.73;18.43;;;;;;;-142.25;100.00;58004.16;5034027;28;20144;-68
2022/12/31 05:03:39;;;;;;;28.00;18.03;;;;;;;-142.25;100.00;58004.16;5034099;28;20191;-67
2022/12/31 05:06:11;;;;;;;29.37;17.67;;;;;;;-142.25;100.00;58004.16;5036392;28;20553;-68
2022/12/31 05:08:37;;;;;;;29.70;17.63;;;;;;;-142.25;100.00;58004.16;5030221;28;20049;-68
2022/12/31 05:11:03;;;;;;;27.20;17.07;;;;;;;-142.25;100.00;58004.16;5018443;28;20079;-69
2022/12/31 05:13:29;;;;;;;29.07;17.33;;;;;;;-142.25;100.00;58004.16;5033396;28;20871;-68
2022/12/31 05:15:55;;;;;;;32.33;18.10;;;;;;;-142.25;100.00;58004.16;5035732;28;20052;-68
2022/12/31 05:18:21;;;;;;;31.47;19.10;;;;;;;-142.25;100.00;58004.16;5015270;28;20053;-65
2022/12/31 05:20:47;;;;;;;29.60;18.57;;;;;;;-142.25;100.00;58004.16;5034044;28;20037;-69
2022/12/31 05:23:14;;;;;;;34.27;20.97;;;;;;;-142.25;100.00;58004.16;5033470;28;20044;-67
2022/12/31 05:25:42;;;;;;;32.63;18.80;;;;;;;-142.25;100.00;58004.16;5033507;28;20046;-67
2022/12/31 05:28:08;;;;;;;31.57;19.07;;;;;;;-142.25;100.00;58004.16;5030256;28;20081;-68
2022/12/31 05:30:33;;;;;;;30.87;18.23;;;;;;;-142.25;100.00;58004.16;5027939;28;20609;-67
2022/12/31 05:32:59;;;;;;;32.43;18.63;;;;;;;-142.25;100.00;58004.16;5035076;28;20036;-67
2022/12/31 05:35:25;;;;;;;29.17;18.93;;;;;;;-142.25;100.00;58004.16;5033922;28;20029;-67
2022/12/31 05:37:50;;;;;;;31.47;18.97;;;;;;;-142.25;100.00;58004.16;5018319;28;20045;-66
2022/12/31 05:40:16;;;;;;;31.67;19.67;;;;;;;-142.25;100.00;58004.16;5019998;28;20124;-67
2022/12/31 05:42:42;;;;;;;28.83;17.87;;;;;;;-142.25;100.00;58004.16;5036525;28;20033;-67
2022/12/31 05:45:08;;;;;;;28.33;18.70;;;;;;;-142.25;100.00;58004.16;5036638;28;20060;-67
2022/12/31 05:47:33;;;;;;;28.63;18.03;;;;;;;-142.25;100.00;58004.16;5032989;28;20519;-67
2022/12/31 05:49:59;;;;;;;35.17;20.33;;;;;;;-142.25;100.00;58004.16;5032495;28;20076;-67
2022/12/31 05:52:25;;;;;;;34.30;21.27;;;;;;;-142.25;100.00;58004.16;5032785;28;20503;-67
2022/12/31 05:54:51;;;;;;;31.80;19.53;;;;;;;-142.25;100.00;58004.16;5035226;28;20391;-67
2022/12/31 05:57:17;;;;;;;26.77;18.07;;;;;;;-142.25;100.00;58004.16;5035287;28;20049;-67
2022/12/31 05:59:43;;;;;;;28.70;18.20;;;;;;;-142.25;100.00;58004.16;5017008;28;20118;-66
2022/12/31 06:02:09;;;;;;;27.97;17.40;;;;;;;-142.25;100.00;58004.16;5033213;28;20048;-67
2022/12/31 06:04:34;;;;;;;31.50;17.73;;;;;;;-142.25;100.00;58004.16;5034357;28;20090;-67
2022/12/31 06:07:00;;;;;;;29.60;18.53;;;;;;;-142.25;100.00;58004.16;5016017;28;20582;-67
2022/12/31 06:09:27;;;;;;;31.43;19.30;;;;;;;-142.25;100.00;58004.16;5016588;28;20049;-66
2022/12/31 06:11:52;;;;;;;28.03;17.47;;;;;;;-142.25;100.00;58004.16;5032147;28;20053;-68
2022/12/31 06:14:18;;;;;;;25.97;16.20;;;;;;;-142.25;100.00;58004.16;5034358;28;20492;-68
2022/12/31 06:16:44;;;;;;;28.00;17.07;;;;;;;-142.25;100.00;58004.16;5035609;28;20202;-68
2022/12/31 06:19:09;;;;;;;33.97;18.37;;;;;;;-142.25;100.00;58004.16;5008785;28;20279;-68
2022/12/31 06:21:35;;;;;;;26.43;17.47;;;;;;;-142.25;100.00;58004.16;5025626;28;20044;-69
2022/12/31 06:24:00;;;;;;;28.77;18.13;;;;;;;-142.25;100.00;58004.16;5036487;28;20057;-66
2022/12/31 06:26:29;;;;;;;33.80;18.57;;;;;;;-142.25;100.00;58004.16;5038092;28;20444;-68
2022/12/31 06:28:55;;;;;;;32.10;18.50;;;;;;;-142.25;100.00;58004.16;5036521;28;20053;-68
2022/12/31 06:31:21;;;;;;;28.33;17.50;;;;;;;-142.25;100.00;58004.16;5034095;28;20452;-67
2022/12/31 06:33:46;;;;;;;27.83;19.07;;;;;;;-142.25;100.00;58004.16;5032918;28;20055;-66
2022/12/31 06:36:14;;;;;;;27.73;16.10;;;;;;;-142.25;100.00;58004.16;5032948;28;20036;-66
2022/12/31 06:38:41;;;;;;;34.00;19.87;;;;;;;-142.25;100.00;58004.16;5035893;28;20068;-66
2022/12/31 06:41:09;;;;;;;42.37;23.67;;;;;;;-142.25;100.00;58004.16;5019562;28;20048;-67
2022/12/31 06:43:36;;;;;;;45.97;25.73;;;;;;;-142.25;100.00;58004.16;5018422;28;20508;-68
2022/12/31 06:46:04;;;;;;;40.77;21.43;;;;;;;-142.25;100.00;58004.16;5033845;28;20059;-67
2022/12/31 06:48:30;;;;;;;32.40;18.77;;;;;;;-142.25;100.00;58004.16;5036316;28;20037;-67
2022/12/31 06:50:56;;;;;;;24.30;17.27;;;;;;;-142.25;100.00;58004.16;5039233;28;20045;-67
2022/12/31 06:53:21;;;;;;;24.97;15.93;;;;;;;-142.25;100.00;58004.16;5036828;28;20057;-67
2022/12/31 06:55:48;;;;;;;24.03;15.43;;;;;;;-142.25;100.00;58004.16;5033747;28;20491;-68
2022/12/31 06:58:16;;;;;;;27.57;18.33;;;;;;;-142.25;100.00;58004.16;5035442;28;20049;-67
2022/12/31 07:00:56;;;;;;;24.57;16.00;;;;;;;-142.25;100.00;58004.16;5036442;28;20051;-67
2022/12/31 07:03:47;;;;;;;25.73;16.57;;;;;;;-142.25;100.00;58004.16;5018047;28;20042;-67
2022/12/31 07:06:16;;;;;;;33.43;21.33;;;;;;;-142.25;100.00;58004.16;5034936;28;20076;-66
2022/12/31 07:08:45;;;;;;;29.60;17.67;;;;;;;-142.25;100.00;58004.16;5030883;28;20044;-67
2022/12/31 07:11:22;;;;;;;29.40;18.93;;;;;;;-142.25;100.00;58004.16;5032436;28;20040;-67
2022/12/31 07:13:48;;;;;;;30.93;17.97;;;;;;;-142.25;100.00;58004.16;5036261;28;20140;-66
2022/12/31 07:16:28;;;;;;;28.17;17.20;;;;;;;-142.25;100.00;58004.16;5037456;28;20140;-66
2022/12/31 07:19:24;;;;;;;29.17;18.30;;;;;;;-142.25;100.00;58004.16;5037954;28;20060;-66
2022/12/31 07:21:52;;;;;;;31.10;17.85;;;;;;;-142.25;100.00;58004.16;5025453;28;20091;-66
2022/12/31 07:24:18;;;;;;;30.30;19.80;;;;;;;-142.25;100.00;58004.16;5034239;28;20069;-67
2022/12/31 07:27:04;;;;;;;31.83;20.40;;;;;;;-142.25;100.00;58004.16;5011185;28;20045;-67
2022/12/31 07:29:33;;;;;;;28.67;18.63;;;;;;;-142.25;100.00;58004.16;5029659;28;20102;-66
2022/12/31 07:32:23;;;;;;;31.03;20.73;;;;;;;-142.25;100.00;58004.16;5016539;28;20170;-67
2022/12/31 07:35:03;;;;;;;30.57;19.97;;;;;;;-142.25;100.00;58004.16;5032879;28;20049;-68
2022/12/31 07:38:01;;;;;;;33.87;21.20;;;;;;;-142.25;100.00;58004.16;5032419;28;20048;-67
2022/12/31 07:40:29;;;;;;;28.90;18.90;;;;;;;-142.25;100.00;58004.16;5034835;28;20049;-65
2022/12/31 07:43:25;;;;;;;27.20;18.80;;;;;;;-142.25;100.00;58004.16;5034407;28;20052;-67
2022/12/31 07:46:11;;;;;;;28.00;17.45;;;;;;;-142.25;100.00;58004.16;5038291;28;20044;-68
2022/12/31 07:48:37;;;;;;;25.97;17.30;;;;;;;-142.25;100.00;58004.16;5033095;28;20568;-65
2022/12/31 07:51:04;;;;;;;26.20;18.13;;;;;;;-142.25;100.00;58004.16;5012222;28;20049;-66
2022/12/31 07:53:30;;;;;;;26.53;17.20;;;;;;;-142.25;100.00;58004.16;5030641;28;20072;-63
2022/12/31 07:56:01;;;;;;;25.67;17.43;;;;;;;-142.25;100.00;58004.16;5038493;28;20483;-68
2022/12/31 07:58:50;;;;;;;23.07;15.97;;;;;;;-142.25;100.00;58004.16;5031516;28;20489;-67
2022/12/31 08:01:28;;;;;;;26.80;16.03;;;;;;;-142.25;100.00;58004.16;5015489;28;20118;-67
2022/12/31 08:04:17;;;;;;;26.03;17.93;;;;;;;-142.25;100.00;58004.16;5023777;28;20071;-67
2022/12/31 08:06:53;;;;;;;24.27;16.53;;;;;;;-142.25;100.00;58004.16;5032503;28;20056;-68
2022/12/31 08:09:28;;;;;;;24.63;17.07;;;;;;;-142.25;100.00;58004.16;5015873;28;20059;-68
2022/12/31 08:11:56;;;;;;;27.25;15.93;;;;;;;-142.25;100.00;58004.16;5033798;28;20373;-67
2022/12/31 08:14:23;;;;;;;26.13;17.77;;;;;;;-142.25;100.00;58004.16;5033670;28;20128;-69
2022/12/31 08:16:49;;;;;;;25.50;16.73;;;;;;;-142.25;100.00;58004.16;5033263;28;20317;-68
2022/12/31 08:19:29;;;;;;;21.30;15.03;;;;;;;-142.25;100.00;58004.16;5032570;28;20049;-68
2022/12/31 08:22:35;;;;;;;23.03;14.33;;;;;;;-142.25;100.00;58004.16;5028895;28;20049;-68
2022/12/31 08:25:13;;;;;;;24.33;14.83;;;;;;;-142.25;100.00;58004.16;4990163;28;20052;-68
2022/12/31 08:27:57;;;;;;;23.27;16.73;;;;;;;-142.25;100.00;58004.16;5033284;28;20527;-69
2022/12/31 08:30:35;;;;;;;24.33;16.57;;;;;;;-142.25;100.00;58004.16;5011903;28;20041;-68
2022/12/31 08:33:26;;;;;;;25.00;17.17;;;;;;;-142.25;100.00;58004.16;5024999;28;20056;-68
2022/12/31 08:35:54;;;;;;;24.40;16.00;;;;;;;-142.25;100.00;58004.16;5018050;28;20067;-68
2022/12/31 08:38:23;;;;;;;21.43;15.53;;;;;;;-142.25;100.00;58004.16;5031858;28;20041;-70
2022/12/31 08:41:01;;;;;;;21.10;16.77;;;;;;;-142.25;100.00;58004.16;5033623;28;20042;-69
2022/12/31 08:43:48;;;;;;;20.33;15.40;;;;;;;-142.25;100.00;58004.16;5030861;28;20029;-69
2022/12/31 08:46:28;;;;;;;20.80;15.27;;;;;;;-142.25;100.00;58004.16;5033851;28;20581;-69
2022/12/31 08:48:54;;;;;;;24.07;16.20;;;;;;;-142.25;100.00;58004.16;5034257;28;20580;-69
2022/12/31 08:51:22;;;;;;;22.70;15.57;;;;;;;-142.25;100.00;58004.16;5028848;28;20041;-69
2022/12/31 08:53:49;;;;;;;24.23;17.27;;;;;;;-142.25;100.00;58004.16;5030574;28;20043;-68
2022/12/31 08:56:38;;;;;;;22.73;16.93;;;;;;;-142.25;100.00;58004.16;5033988;28;20394;-68
2022/12/31 08:59:19;;;;;;;27.43;17.27;;;;;;;-142.25;100.00;58004.16;5032092;28;20092;-68
2022/12/31 09:01:50;;;;;;;22.50;16.70;;;;;;;-142.25;100.00;58004.16;5032799;28;20056;-68
2022/12/31 09:05:10;;;;;;;23.80;16.57;;;;;;;-142.25;100.00;58004.16;5034291;28;20815;-68
2022/12/31 09:07:46;;;;;;;19.10;14.23;;;;;;;-142.25;100.00;58004.16;4945676;28;20082;-68
2022/12/31 09:10:19;;;;;;;20.97;16.07;;;;;;;-142.25;100.00;58004.16;4945884;28;20138;-68
2022/12/31 09:13:03;;;;;;;22.37;16.10;;;;;;;-142.25;100.00;58004.16;4940667;28;20082;-68
2022/12/31 09:15:36;;;;;;;21.20;16.17;;;;;;;-142.25;100.00;58004.16;4943399;28;20153;-68
2022/12/31 09:18:01;;;;;;;22.50;16.47;;;;;;;-142.25;100.00;58004.16;4946702;28;20157;-67
2022/12/31 09:20:33;;;;;;;24.70;17.63;;;;;;;-142.25;100.00;58004.16;4945641;28;20054;-67
2022/12/31 09:23:00;;;;;;;26.33;18.93;;;;;;;-142.25;100.00;58004.16;4945403;28;20066;-68
2022/12/31 09:25:26;;;;;;;23.90;16.27;;;;;;;-142.25;100.00;58004.16;4946483;28;20043;-67
2022/12/31 09:28:04;;;;;;;28.63;19.50;;;;;;;-142.25;100.00;58004.16;4930314;28;20443;-69
2022/12/31 09:30:40;;;;;;;24.93;17.93;;;;;;;-142.25;100.00;58004.16;4945286;28;20557;-69
2022/12/31 09:33:33;;;;;;;26.33;18.03;;;;;;;-142.25;100.00;58004.16;4923817;28;20051;-69
2022/12/31 09:36:10;;;;;;;30.00;19.70;;;;;;;-142.25;100.00;58004.16;4945337;28;20316;-68
2022/12/31 09:38:46;;;;;;;25.40;18.47;;;;;;;-142.25;100.00;58004.16;4945634;28;20082;-68
2022/12/31 09:41:24;;;;;;;25.17;17.87;;;;;;;-142.25;100.00;58004.16;4984410;28;20053;-68
2022/12/31 09:43:56;;;;;;;26.17;17.70;;;;;;;-142.25;100.00;58004.16;5006461;28;20033;-70
2022/12/31 09:46:27;;;;;;;21.77;16.40;;;;;;;-142.25;100.00;58004.16;5012314;28;20041;-70
2022/12/31 09:49:14;;;;;;;24.93;16.30;;;;;;;-142.25;100.00;58004.16;5023211;28;20048;-70
2022/12/31 09:52:02;;;;;;;25.77;18.80;;;;;;;-142.25;100.00;58004.16;5035908;28;20037;-66
2022/12/31 09:54:56;;;;;;;26.13;18.30;;;;;;;-142.25;100.00;58004.16;5035198;28;20041;-66
2022/12/31 09:57:29;;;;;;;27.57;21.73;;;;;;;-142.25;100.00;58004.16;4999571;28;20045;-66
2022/12/31 10:00:09;;;;;;;29.03;18.40;;;;;;;-142.25;100.00;58004.16;5032709;28;20029;-65
2022/12/31 10:03:01;;;;;;;24.20;17.50;;;;;;;-142.25;100.00;58004.16;5036669;28;20116;-66
2022/12/31 10:05:53;;;;;;;24.33;17.20;;;;;;;-142.25;100.00;58004.16;5018343;28;20332;-65
2022/12/31 10:08:44;;;;;;;25.10;17.60;;;;;;;-142.25;100.00;58004.16;5035378;28;20046;-67
2022/12/31 10:11:28;;;;;;;31.87;22.93;;;;;;;-142.25;100.00;58004.16;5037332;28;20064;-66
2022/12/31 10:14:05;;;;;;;27.53;19.40;;;;;;;-142.25;100.00;58004.16;5031937;28;20864;-67
2022/12/31 10:16:52;;;;;;;23.77;16.90;;;;;;;-142.25;100.00;58004.16;5014392;28;20094;-65
2022/12/31 10:19:35;;;;;;;26.27;16.90;;;;;;;-142.25;100.00;58004.16;5036905;28;20044;-65
2022/12/31 10:22:10;;;;;;;24.00;17.30;;;;;;;-142.25;100.00;58004.16;5035828;28;20504;-65
2022/12/31 10:25:20;;;;;;;24.10;18.35;;;;;;;-142.25;100.00;58004.16;5039884;28;20461;-64
2022/12/31 10:28:24;;;;;;;24.00;17.27;;;;;;;-142.25;100.00;58004.16;5000653;28;20148;-66
2022/12/31 10:31:20;;;;;;;22.90;17.15;;;;;;;-142.25;100.00;58004.16;4994884;28;20038;-67
2022/12/31 10:34:13;;;;;;;21.02;15.45;;;;;;;-142.25;100.00;58004.16;4996220;28;20124;-66
2022/12/31 10:36:50;;;;;;;22.25;16.85;;;;;;;-142.25;100.00;58004.16;4997553;28;20053;-67
2022/12/31 10:39:46;;;;;;;21.88;16.55;;;;;;;-142.25;100.00;58004.16;4980852;28;20058;-66
2022/12/31 10:42:39;;;;;;;24.17;17.17;;;;;;;-142.25;100.00;58004.16;4994485;28;20477;-67
2022/12/31 10:45:30;;;;;;;22.70;16.80;;;;;;;-142.25;100.00;58004.16;4994536;28;20083;-63
2022/12/31 10:48:29;;;;;;;24.45;16.77;;;;;;;-142.25;100.00;58004.16;5001891;28;20042;-64
2022/12/31 10:51:20;;;;;;;24.10;17.00;;;;;;;-142.25;100.00;58004.16;4998162;28;20057;-64
2022/12/31 10:54:17;;;;;;;23.23;17.10;;;;;;;-142.25;100.00;58004.16;4994356;28;20041;-65
2022/12/31 10:57:10;;;;;;;26.00;18.40;;;;;;;-142.25;100.00;58004.16;4993279;28;20159;-68
2022/12/31 11:00:09;;;;;;;25.45;17.92;;;;;;;-142.25;100.00;58004.16;5000744;28;20236;-65
2022/12/31 11:03:19;;;;;;;27.30;18.70;;;;;;;-142.25;100.00;58004.16;4991922;28;20081;-65
2022/12/31 11:06:02;;;;;;;25.80;18.83;;;;;;;-142.25;100.00;58004.16;5033453;28;20052;-65
2022/12/31 11:08:47;;;;;;;28.77;19.08;;;;;;;-142.25;100.00;58004.16;5033154;28;20136;-66
2022/12/31 11:11:51;;;;;;;30.08;21.13;;;;;;;-142.25;100.00;58004.16;5018289;28;20091;-67
2022/12/31 11:14:33;;;;;;;25.95;19.60;;;;;;;-142.25;100.00;58004.16;5033542;28;20048;-67
2022/12/31 11:17:41;;;;;;;28.55;21.48;;;;;;;-142.25;100.00;58004.16;5036363;28;20223;-66
2022/12/31 11:20:37;;;;;;;34.97;22.58;;;;;;;-142.25;100.00;58004.16;4961677;28;20062;-67
2022/12/31 11:23:02;;;;;;;;;;;;;;;-142.25;100.00;58004.16;4962486;28;20206;-67
2022/12/31 11:25:53;;;;;;;27.40;18.52;;;;;;;-142.25;100.00;58004.16;4961832;28;20016;-66
2022/12/31 11:28:38;;;;;;;23.98;18.27;;;;;;;-142.25;100.00;58004.16;4959716;28;20051;-66
2022/12/31 11:31:04;;;;;;;;;;;;;;;-142.25;100.00;58004.16;4962683;28;20141;-66